Time;durP1;ratioP1;P1;durP2;ratioP2;P2;SDS_P1;SDS_P2;PMS_P1;PMS_P2;Temp;Humidity;BMP_temperature;BMP_pressure;BME280_temperature;BME280_humidity;BME280_pressure;Samples;Min_cycle;Max_cycle;Signal;HPM_P1;HPM_P2
2023/09/05 00:01:57;;;;;;;0.00;0.00;;;20.20;99.90;;;;;;5009531;28;20510;-77
2023/09/05 00:04:24;;;;;;;0.00;0.00;;;20.20;99.90;;;;;;5008444;28;20030;-77
2023/09/05 00:06:50;;;;;;;0.00;0.00;;;20.00;99.90;;;;;;5010352;28;20070;-76
2023/09/05 00:09:18;;;;;;;0.00;0.00;;;20.10;99.90;;;;;;5012408;28;20054;-76
2023/09/05 00:11:45;;;;;;;0.00;0.00;;;20.10;99.90;;;;;;5012612;28;20034;-76
2023/09/05 00:14:11;;;;;;;0.00;0.00;;;19.90;99.90;;;;;;5012551;28;20026;-77
2023/09/05 00:16:38;;;;;;;0.00;0.00;;;19.70;99.90;;;;;;5012576;28;20138;-76
2023/09/05 00:19:05;;;;;;;0.00;0.00;;;19.60;99.90;;;;;;5011366;28;20041;-75
2023/09/05 00:21:31;;;;;;;0.00;0.00;;;19.60;99.90;;;;;;5011744;28;20122;-76
2023/09/05 00:24:22;;;;;;;0.00;0.00;;;19.30;99.90;;;;;;5012694;28;20037;-76
2023/09/05 00:26:48;;;;;;;0.70;0.65;;;19.40;99.90;;;;;;5000557;28;20034;-77
2023/09/05 00:29:14;;;;;;;0.00;0.00;;;19.50;99.90;;;;;;5011091;28;20028;-77
2023/09/05 00:31:40;;;;;;;0.00;0.00;;;19.60;99.90;;;;;;5027048;28;20052;-76
2023/09/05 00:34:06;;;;;;;0.10;0.10;;;19.80;99.90;;;;;;5011147;28;20022;-77
2023/09/05 00:36:32;;;;;;;0.00;0.00;;;19.90;99.90;;;;;;5010498;28;20030;-76
2023/09/05 00:39:02;;;;;;;0.28;0.28;;;19.60;99.90;;;;;;5012299;28;20014;-77
2023/09/05 00:41:28;;;;;;;0.00;0.00;;;19.60;99.90;;;;;;5012165;28;20022;-76
2023/09/05 00:43:54;;;;;;;0.10;0.10;;;19.70;99.90;;;;;;5012050;28;20056;-76
2023/09/05 00:46:20;;;;;;;0.00;0.00;;;19.80;99.90;;;;;;5011602;28;20073;-76
2023/09/05 00:48:46;;;;;;;0.00;0.00;;;19.70;99.90;;;;;;5010832;28;20034;-77
2023/09/05 00:51:12;;;;;;;0.00;0.00;;;19.60;99.90;;;;;;5011726;28;20143;-76
2023/09/05 00:53:38;;;;;;;0.00;0.00;;;19.50;99.90;;;;;;5011777;28;20094;-76
2023/09/05 00:56:04;;;;;;;0.00;0.00;;;19.60;99.90;;;;;;5027218;28;20018;-77
2023/09/05 00:58:30;;;;;;;0.00;0.00;;;19.40;99.90;;;;;;5010739;28;20044;-76
2023/09/05 01:00:56;;;;;;;0.00;0.00;;;19.00;99.90;;;;;;5010093;28;20103;-76
2023/09/05 01:03:22;;;;;;;0.00;0.00;;;18.80;99.90;;;;;;5010545;28;20083;-77
2023/09/05 01:05:56;;;;;;;0.20;0.20;;;19.00;99.90;;;;;;5010106;28;20454;-76
2023/09/05 01:08:30;;;;;;;0.00;0.00;;;19.10;99.90;;;;;;5011886;28;20040;-77
2023/09/05 01:10:59;;;;;;;0.10;0.10;;;19.20;99.90;;;;;;5010483;28;20047;-76
2023/09/05 01:13:27;;;;;;;0.00;0.00;;;19.30;99.90;;;;;;5011569;28;20032;-76
2023/09/05 01:15:54;;;;;;;0.00;0.00;;;19.30;99.90;;;;;;5011451;28;20113;-76
2023/09/05 01:18:20;;;;;;;0.00;0.00;;;19.30;99.90;;;;;;5011497;28;20474;-76
2023/09/05 01:21:23;;;;;;;0.00;0.00;;;19.20;99.90;;;;;;5011192;28;20052;-76
2023/09/05 01:24:20;;;;;;;0.00;0.00;;;19.30;99.90;;;;;;5026512;28;20034;-76
2023/09/05 01:26:48;;;;;;;0.00;0.00;;;19.40;99.90;;;;;;5010300;28;20540;-77
2023/09/05 01:29:15;;;;;;;0.00;0.00;;;19.50;99.90;;;;;;5010176;28;20037;-76
2023/09/05 01:31:45;;;;;;;0.00;0.00;;;19.40;99.90;;;;;;5026435;28;20034;-77
2023/09/05 01:34:11;;;;;;;0.10;0.10;;;19.40;99.90;;;;;;4990305;28;20080;-76
2023/09/05 01:36:38;;;;;;;0.00;0.00;;;19.00;99.90;;;;;;5005082;28;20026;-77
2023/09/05 01:39:04;;;;;;;0.00;0.00;;;18.80;99.90;;;;;;5011473;28;20017;-76
2023/09/05 01:41:30;;;;;;;0.00;0.00;;;19.10;99.90;;;;;;5026288;28;20604;-76
2023/09/05 01:43:56;;;;;;;0.00;0.00;;;19.10;99.90;;;;;;5011504;28;20029;-77
2023/09/05 01:46:22;;;;;;;0.00;0.00;;;19.10;99.90;;;;;;5011045;28;20041;-76
2023/09/05 01:48:47;;;;;;;0.00;0.00;;;19.30;99.90;;;;;;5010630;28;20026;-76
2023/09/05 01:51:13;;;;;;;0.00;0.00;;;18.90;99.90;;;;;;5009986;28;20496;-75
2023/09/05 01:53:39;;;;;;;0.00;0.00;;;18.60;99.90;;;;;;5009467;28;20498;-76
2023/09/05 01:56:05;;;;;;;0.35;0.35;;;18.60;99.90;;;;;;5010952;28;20405;-77
2023/09/05 01:58:31;;;;;;;0.00;0.00;;;18.70;99.90;;;;;;5000392;28;20022;-76
2023/09/05 02:01:03;;;;;;;0.00;0.00;;;18.60;99.90;;;;;;5008374;28;20117;-77
2023/09/05 02:03:29;;;;;;;0.00;0.00;;;18.80;99.90;;;;;;4994741;28;20026;-76
2023/09/05 02:05:55;;;;;;;0.20;0.20;;;18.90;99.90;;;;;;5002990;28;20531;-76
2023/09/05 02:08:21;;;;;;;0.00;0.00;;;19.00;99.90;;;;;;5010848;28;20033;-77
2023/09/05 02:10:47;;;;;;;0.00;0.00;;;18.90;99.90;;;;;;5009604;28;20024;-76
2023/09/05 02:13:13;;;;;;;0.00;0.00;;;18.80;99.90;;;;;;5010736;28;20022;-76
2023/09/05 02:15:39;;;;;;;0.00;0.00;;;19.00;99.90;;;;;;5010363;28;20465;-77
2023/09/05 02:18:10;;;;;;;0.10;0.10;;;19.10;99.90;;;;;;5009153;28;20080;-76
2023/09/05 02:20:40;;;;;;;0.00;0.00;;;19.10;99.90;;;;;;5010859;28;20033;-76
2023/09/05 02:23:07;;;;;;;0.00;0.00;;;19.20;99.90;;;;;;5025774;28;20033;-77
2023/09/05 02:25:33;;;;;;;0.00;0.00;;;19.10;99.90;;;;;;5009353;28;20028;-77
2023/09/05 02:27:59;;;;;;;0.00;0.00;;;18.90;99.90;;;;;;5009817;28;20497;-77
2023/09/05 02:30:26;;;;;;;0.00;0.00;;;18.80;99.90;;;;;;5010242;28;20040;-76
2023/09/05 02:32:55;;;;;;;0.00;0.00;;;19.00;99.90;;;;;;5025163;28;20065;-76
2023/09/05 02:35:27;;;;;;;0.00;0.00;;;19.10;99.90;;;;;;5010598;28;20535;-76
2023/09/05 02:37:54;;;;;;;0.13;0.13;;;19.00;99.90;;;;;;5010273;28;20423;-76
2023/09/05 02:40:21;;;;;;;0.00;0.00;;;18.70;99.90;;;;;;5010493;28;20428;-74
2023/09/05 02:42:47;;;;;;;0.10;0.10;;;18.70;99.90;;;;;;5010368;28;20478;-76
2023/09/05 02:45:13;;;;;;;0.00;0.00;;;18.80;99.90;;;;;;4992613;28;20083;-76
2023/09/05 02:47:42;;;;;;;0.00;0.00;;;18.70;99.90;;;;;;5008725;28;20038;-76
2023/09/05 02:50:09;;;;;;;0.00;0.00;;;18.70;99.90;;;;;;5013594;28;20410;-76
2023/09/05 02:52:36;;;;;;;0.03;0.03;;;18.40;99.90;;;;;;4995607;28;20059;-76
2023/09/05 02:55:03;;;;;;;0.00;0.00;;;18.60;99.90;;;;;;5010817;28;20033;-76
2023/09/05 02:57:29;;;;;;;0.00;0.00;;;18.50;99.90;;;;;;5010001;28;20032;-76
2023/09/05 02:59:55;;;;;;;0.00;0.00;;;18.70;99.90;;;;;;5008524;28;20054;-76
2023/09/05 03:02:24;;;;;;;0.00;0.00;;;18.50;99.90;;;;;;5008742;28;20102;-76
2023/09/05 03:04:54;;;;;;;0.00;0.00;;;18.50;99.90;;;;;;5025384;28;20036;-76
2023/09/05 03:07:23;;;;;;;0.00;0.00;;;18.70;99.90;;;;;;4994893;28;20034;-77
2023/09/05 03:09:52;;;;;;;0.00;0.00;;;19.00;99.90;;;;;;5008803;28;20037;-76
2023/09/05 03:12:20;;;;;;;0.00;0.00;;;19.00;99.90;;;;;;5008972;28;20539;-76
2023/09/05 03:14:45;;;;;;;0.00;0.00;;;19.00;99.90;;;;;;5008698;28;20026;-76
2023/09/05 03:17:11;;;;;;;0.00;0.00;;;18.90;99.90;;;;;;5008345;28;20579;-76
2023/09/05 03:19:39;;;;;;;0.20;0.20;;;18.70;99.90;;;;;;5008650;28;20022;-76
2023/09/05 03:22:06;;;;;;;0.00;0.00;;;18.70;99.90;;;;;;5008361;28;20056;-76
2023/09/05 03:24:33;;;;;;;0.00;0.00;;;18.60;99.90;;;;;;5008483;28;20030;-76
2023/09/05 03:26:59;;;;;;;0.10;0.10;;;18.70;99.90;;;;;;5009878;28;20099;-77
2023/09/05 03:29:25;;;;;;;0.10;0.10;;;18.70;99.90;;;;;;5007656;28;20023;-76
2023/09/05 03:31:53;;;;;;;0.00;0.00;;;18.50;99.90;;;;;;5008385;28;20056;-77
2023/09/05 03:34:19;;;;;;;0.00;0.00;;;18.50;99.90;;;;;;5009521;28;20040;-77
2023/09/05 03:36:45;;;;;;;0.00;0.00;;;18.60;99.90;;;;;;5008351;28;20041;-77
2023/09/05 03:39:11;;;;;;;0.00;0.00;;;18.70;99.90;;;;;;4989876;28;20030;-77
2023/09/05 03:41:37;;;;;;;2.05;1.02;;;18.70;99.90;;;;;;5011943;28;20074;-77
2023/09/05 03:44:03;;;;;;;0.00;0.00;;;18.70;99.90;;;;;;5011470;28;20022;-77
2023/09/05 03:46:29;;;;;;;0.00;0.00;;;18.80;99.90;;;;;;5012709;28;20038;-77
2023/09/05 03:48:57;;;;;;;0.00;0.00;;;19.00;99.90;;;;;;5012914;28;20022;-76
2023/09/05 03:51:23;;;;;;;0.00;0.00;;;18.80;99.90;;;;;;5011496;28;20038;-76
2023/09/05 03:53:50;;;;;;;0.00;0.00;;;18.60;99.90;;;;;;5012874;28;20030;-76
2023/09/05 03:56:16;;;;;;;0.00;0.00;;;18.60;99.90;;;;;;5028120;28;20386;-76
2023/09/05 03:58:41;;;;;;;0.10;0.10;;;18.50;99.90;;;;;;4995052;28;20026;-76
2023/09/05 04:01:15;;;;;;;0.05;0.05;;;18.30;99.90;;;;;;5011100;28;20041;-76
2023/09/05 04:03:41;;;;;;;0.00;0.00;;;18.20;99.90;;;;;;4999885;28;20482;-76
2023/09/05 04:06:07;;;;;;;0.38;0.38;;;18.20;99.90;;;;;;5002273;28;20125;-76
2023/09/05 04:08:33;;;;;;;0.00;0.00;;;18.20;99.90;;;;;;5008601;28;20030;-76
2023/09/05 04:11:00;;;;;;;0.98;0.85;;;18.10;99.90;;;;;;5011233;28;20374;-76
2023/09/05 04:13:27;;;;;;;0.10;0.10;;;18.10;99.90;;;;;;5027573;28;20226;-76
2023/09/05 04:15:53;;;;;;;0.10;0.10;;;18.10;99.90;;;;;;5011021;28;20014;-76
2023/09/05 04:18:18;;;;;;;0.00;0.00;;;18.20;99.90;;;;;;5011259;28;20033;-75
2023/09/05 04:20:44;;;;;;;0.00;0.00;;;18.10;99.90;;;;;;5012453;28;20022;-76
2023/09/05 04:23:10;;;;;;;0.00;0.00;;;18.00;99.90;;;;;;5011293;28;20032;-76
2023/09/05 04:25:40;;;;;;;0.00;0.00;;;17.90;99.90;;;;;;5010921;28;20022;-76
2023/09/05 04:28:08;;;;;;;0.00;0.00;;;18.10;99.90;;;;;;5010952;28;20573;-77
2023/09/05 04:30:36;;;;;;;0.00;0.00;;;18.10;99.90;;;;;;5012096;28;20064;-76
2023/09/05 04:33:06;;;;;;;0.00;0.00;;;18.00;99.90;;;;;;5012458;28;20109;-76
2023/09/05 04:35:32;;;;;;;0.10;0.10;;;17.90;99.90;;;;;;5010886;28;20040;-76
2023/09/05 04:37:58;;;;;;;0.00;0.00;;;18.10;99.90;;;;;;5011917;28;20022;-76
2023/09/05 04:40:24;;;;;;;0.00;0.00;;;18.20;99.90;;;;;;5012125;28;20109;-76
2023/09/05 04:42:50;;;;;;;0.00;0.00;;;18.10;99.90;;;;;;5010555;28;20601;-76
2023/09/05 04:45:16;;;;;;;0.00;0.00;;;18.10;99.90;;;;;;4994642;28;20034;-75
2023/09/05 04:47:42;;;;;;;0.00;0.00;;;18.00;99.90;;;;;;5011807;28;20034;-76
2023/09/05 04:50:08;;;;;;;0.00;0.00;;;18.00;99.90;;;;;;5012162;28;20049;-76
2023/09/05 04:52:35;;;;;;;0.00;0.00;;;17.90;99.90;;;;;;5011381;28;20017;-76
2023/09/05 04:55:01;;;;;;;0.10;0.10;;;17.90;99.90;;;;;;5012010;28;20025;-76
2023/09/05 04:57:27;;;;;;;0.00;0.00;;;17.90;99.90;;;;;;5011705;28;20057;-76
2023/09/05 04:59:57;;;;;;;0.10;0.10;;;17.70;99.90;;;;;;5010456;28;20061;-76
2023/09/05 05:02:27;;;;;;;0.00;0.00;;;17.60;99.90;;;;;;5011574;28;20025;-76
2023/09/05 05:04:53;;;;;;;0.00;0.00;;;17.60;99.90;;;;;;5011216;28;20045;-76
2023/09/05 05:07:20;;;;;;;0.10;0.10;;;17.60;99.90;;;;;;5011538;28;20069;-76
2023/09/05 05:09:47;;;;;;;0.00;0.00;;;17.70;99.90;;;;;;5011599;28;20030;-76
2023/09/05 05:12:13;;;;;;;7.75;2.30;;;17.60;99.90;;;;;;5011308;28;20062;-76
2023/09/05 05:14:39;;;;;;;0.00;0.00;;;17.70;99.90;;;;;;5010563;28;20026;-76
2023/09/05 05:17:06;;;;;;;0.10;0.10;;;17.80;99.90;;;;;;5026636;28;20116;-76
2023/09/05 05:19:32;;;;;;;0.00;0.00;;;17.70;99.90;;;;;;5011692;28;20034;-75
2023/09/05 05:21:58;;;;;;;0.00;0.00;;;17.80;99.90;;;;;;5010115;28;20034;-76
2023/09/05 05:24:24;;;;;;;0.00;0.00;;;17.80;99.90;;;;;;5011423;28;20018;-76
2023/09/05 05:26:51;;;;;;;0.00;0.00;;;17.80;99.90;;;;;;5011025;28;20034;-76
2023/09/05 05:29:16;;;;;;;0.00;0.00;;;17.90;99.90;;;;;;5010213;28;20386;-76
2023/09/05 05:31:42;;;;;;;0.10;0.10;;;17.90;99.90;;;;;;5010063;28;20030;-76
2023/09/05 05:34:08;;;;;;;0.00;0.00;;;18.00;99.90;;;;;;5010192;28;20082;-75
2023/09/05 05:36:34;;;;;;;0.00;0.00;;;17.90;99.90;;;;;;5026959;28;20022;-76
2023/09/05 05:39:01;;;;;;;14.18;4.80;;;18.10;99.90;;;;;;5020076;28;20394;-76
2023/09/05 05:41:27;;;;;;;0.00;0.00;;;18.20;99.90;;;;;;5017322;28;20095;-76
2023/09/05 05:43:54;;;;;;;0.00;0.00;;;18.20;99.90;;;;;;5071616;28;20016;-75
2023/09/05 05:46:20;;;;;;;0.00;0.00;;;18.30;99.90;;;;;;5038140;27;20037;-74
2023/09/05 05:48:46;;;;;;;1.27;1.17;;;18.30;99.90;;;;;;5015056;28;20026;-74
2023/09/05 05:51:15;;;;;;;0.00;0.00;;;18.30;99.90;;;;;;5075117;28;20023;-74
2023/09/05 05:53:42;;;;;;;0.00;0.00;;;18.40;99.90;;;;;;5072835;28;20026;-75
2023/09/05 05:56:11;;;;;;;0.00;0.00;;;18.40;99.90;;;;;;5063768;28;20503;-76
2023/09/05 05:58:37;;;;;;;0.00;0.00;;;18.60;99.90;;;;;;5023625;28;20025;-76
2023/09/05 06:01:03;;;;;;;6.65;1.17;;;18.80;99.90;;;;;;5009877;28;20022;-75
2023/09/05 06:03:29;;;;;;;0.00;0.00;;;18.90;99.90;;;;;;5069431;28;20478;-76
2023/09/05 06:05:55;;;;;;;0.00;0.00;;;18.90;99.90;;;;;;5046787;28;20114;-76
2023/09/05 06:08:21;;;;;;;0.00;0.00;;;19.10;99.90;;;;;;5083256;28;20088;-76
2023/09/05 06:10:47;;;;;;;0.00;0.00;;;18.90;99.90;;;;;;5025407;27;20034;-75
2023/09/05 06:13:14;;;;;;;0.00;0.00;;;19.00;99.90;;;;;;5027128;28;20592;-76
2023/09/05 06:15:40;;;;;;;0.00;0.00;;;19.10;99.90;;;;;;5019584;28;20022;-76
2023/09/05 06:18:11;;;;;;;0.00;0.00;;;18.90;99.90;;;;;;5072999;28;20138;-77
2023/09/05 06:20:37;;;;;;;0.25;0.25;;;18.90;99.90;;;;;;5025503;28;20060;-75
2023/09/05 06:23:04;;;;;;;0.00;0.00;;;18.90;99.90;;;;;;5016460;28;20018;-76
2023/09/05 06:25:30;;;;;;;0.00;0.00;;;18.80;99.90;;;;;;5022981;28;20034;-76
2023/09/05 06:27:56;;;;;;;0.00;0.00;;;18.90;99.90;;;;;;5031085;28;20070;-75
2023/09/05 06:30:22;;;;;;;0.00;0.00;;;19.20;99.90;;;;;;5056429;28;20031;-76
2023/09/05 06:32:49;;;;;;;0.00;0.00;;;19.30;99.90;;;;;;5024614;28;20112;-76
2023/09/05 06:35:15;;;;;;;0.00;0.00;;;19.40;99.90;;;;;;5011992;28;20037;-75
2023/09/05 06:37:41;;;;;;;0.00;0.00;;;19.40;99.90;;;;;;5028942;28;20084;-75
2023/09/05 06:40:14;;;;;;;0.05;0.05;;;19.50;99.90;;;;;;5076882;28;20399;-76
2023/09/05 06:42:40;;;;;;;0.00;0.00;;;19.50;99.90;;;;;;5034984;28;20034;-75
2023/09/05 06:45:06;;;;;;;0.00;0.00;;;19.60;99.90;;;;;;5020383;28;20518;-76
2023/09/05 06:47:32;;;;;;;0.00;0.00;;;19.70;99.90;;;;;;5018837;28;20114;-76
2023/09/05 06:49:59;;;;;;;0.52;0.50;;;19.90;99.90;;;;;;5021084;28;20472;-75
2023/09/05 06:52:25;;;;;;;0.00;0.00;;;19.80;99.90;;;;;;5076302;28;20028;-75
2023/09/05 06:54:52;;;;;;;3.10;2.30;;;19.80;99.90;;;;;;5046446;28;20029;-75
2023/09/05 06:57:18;;;;;;;0.00;0.00;;;19.90;99.90;;;;;;5025510;28;20027;-76
2023/09/05 06:59:44;;;;;;;0.03;0.03;;;19.70;99.90;;;;;;5021719;28;20022;-76
2023/09/05 07:02:09;;;;;;;0.00;0.00;;;19.90;99.90;;;;;;5030682;28;20068;-74
2023/09/05 07:04:36;;;;;;;0.00;0.00;;;20.20;99.90;;;;;;5017664;28;20494;-76
2023/09/05 07:07:05;;;;;;;0.00;0.00;;;20.40;99.90;;;;;;5064269;28;20032;-76
2023/09/05 07:09:31;;;;;;;0.00;0.00;;;20.60;99.90;;;;;;5055706;28;20022;-75
2023/09/05 07:11:57;;;;;;;0.00;0.00;;;20.60;99.90;;;;;;5051922;28;20031;-76
2023/09/05 07:14:24;;;;;;;0.00;0.00;;;20.70;99.90;;;;;;5013085;28;20026;-76
2023/09/05 07:16:50;;;;;;;0.00;0.00;;;20.70;99.90;;;;;;5072514;28;20027;-76
2023/09/05 07:19:17;;;;;;;0.00;0.00;;;20.80;99.90;;;;;;5068680;28;20032;-76
2023/09/05 07:21:43;;;;;;;0.00;0.00;;;20.80;99.90;;;;;;5063447;28;20462;-76
2023/09/05 07:24:11;;;;;;;0.00;0.00;;;21.00;99.90;;;;;;5038680;28;20057;-76
2023/09/05 07:26:40;;;;;;;0.10;0.10;;;21.30;99.90;;;;;;5012840;28;20042;-75
2023/09/05 07:29:12;;;;;;;0.05;0.05;;;21.30;99.90;;;;;;5072814;28;20032;-77
2023/09/05 07:31:39;;;;;;;0.00;0.00;;;21.60;99.90;;;;;;5068620;28;20042;-75
2023/09/05 07:34:05;;;;;;;0.03;0.03;;;21.60;99.90;;;;;;5056687;28;20027;-76
2023/09/05 07:36:33;;;;;;;0.20;0.20;;;21.80;99.90;;;;;;5021517;28;20026;-75
2023/09/05 07:38:59;;;;;;;0.47;0.47;;;21.90;99.90;;;;;;5078650;28;20054;-76
2023/09/05 07:41:25;;;;;;;0.47;0.47;;;21.80;99.90;;;;;;5070332;28;20025;-76
2023/09/05 07:43:51;;;;;;;0.00;0.00;;;22.00;99.90;;;;;;5018991;28;20378;-76
2023/09/05 07:46:17;;;;;;;0.38;0.38;;;22.10;99.90;;;;;;5014551;28;20041;-76
2023/09/05 07:48:43;;;;;;;0.30;0.30;;;22.20;99.90;;;;;;5017110;28;20076;-76
2023/09/05 07:51:09;;;;;;;0.00;0.00;;;22.20;99.90;;;;;;5061456;28;20030;-76
2023/09/05 07:53:36;;;;;;;1.85;0.35;;;22.30;99.90;;;;;;5056278;28;20045;-75
2023/09/05 07:56:03;;;;;;;0.00;0.00;;;22.40;99.90;;;;;;5041233;28;20016;-75
2023/09/05 07:58:29;;;;;;;0.00;0.00;;;22.50;99.90;;;;;;5025290;28;20109;-76
2023/09/05 08:00:55;;;;;;;0.00;0.00;;;22.50;99.90;;;;;;5011825;28;20097;-75
2023/09/05 08:03:28;;;;;;;0.00;0.00;;;22.90;99.90;;;;;;5058754;28;20042;-75
2023/09/05 08:05:54;;;;;;;0.22;0.22;;;22.90;99.90;;;;;;5027433;28;20035;-76
2023/09/05 08:08:20;;;;;;;0.10;0.10;;;23.10;99.90;;;;;;5085805;28;20027;-75
2023/09/05 08:10:47;;;;;;;0.03;0.03;;;23.10;99.90;;;;;;5045358;28;20225;-76
2023/09/05 08:13:14;;;;;;;0.00;0.00;;;23.10;99.90;;;;;;5028152;28;20500;-76
2023/09/05 08:15:43;;;;;;;1.65;0.57;;;23.20;99.90;;;;;;5025348;28;20018;-76
2023/09/05 08:18:12;;;;;;;0.00;0.00;;;23.60;99.90;;;;;;5094522;27;20062;-76
2023/09/05 08:20:39;;;;;;;1.45;1.35;;;23.80;99.90;;;;;;5067888;28;20046;-76
2023/09/05 08:23:05;;;;;;;0.10;0.10;;;23.80;99.90;;;;;;5037977;28;20568;-76
2023/09/05 08:25:31;;;;;;;0.10;0.10;;;24.20;99.90;;;;;;5024848;28;20030;-76
2023/09/05 08:27:57;;;;;;;0.45;0.20;;;24.10;99.90;;;;;;5033328;28;20514;-76
2023/09/05 08:30:28;;;;;;;0.00;0.00;;;24.10;99.90;;;;;;5088985;28;20020;-76
2023/09/05 08:33:01;;;;;;;1.70;0.63;;;24.30;99.90;;;;;;5047991;28;20030;-76
2023/09/05 08:35:29;;;;;;;0.10;0.10;;;24.20;99.90;;;;;;5013253;28;20428;-75
2023/09/05 08:37:57;;;;;;;0.32;0.32;;;24.20;99.90;;;;;;5038075;28;20421;-76
2023/09/05 08:40:23;;;;;;;0.00;0.00;;;24.30;99.90;;;;;;5042703;28;20023;-76
2023/09/05 08:42:53;;;;;;;0.00;0.00;;;24.40;99.90;;;;;;5069705;28;20079;-75
2023/09/05 08:45:23;;;;;;;0.00;0.00;;;24.60;99.90;;;;;;5042067;28;20117;-75
2023/09/05 08:47:51;;;;;;;0.00;0.00;;;24.90;99.90;;;;;;5033664;28;20447;-76
2023/09/05 08:50:17;;;;;;;0.00;0.00;;;25.10;99.90;;;;;;5047385;28;20026;-76
2023/09/05 08:52:44;;;;;;;0.00;0.00;;;25.40;99.90;;;;;;5089852;28;20028;-76
2023/09/05 08:55:12;;;;;;;0.40;0.40;;;25.40;99.90;;;;;;5010054;28;20053;-76
2023/09/05 08:57:38;;;;;;;0.00;0.00;;;25.80;99.90;;;;;;5010661;28;20374;-76
2023/09/05 09:00:08;;;;;;;0.00;0.00;;;25.80;99.90;;;;;;5011336;28;20022;-76
2023/09/05 09:02:37;;;;;;;0.00;0.00;;;25.80;99.90;;;;;;4993490;28;20687;-76
2023/09/05 09:05:04;;;;;;;3.90;2.17;;;26.10;99.90;;;;;;5010620;28;20100;-76
2023/09/05 09:07:30;;;;;;;0.00;0.00;;;25.80;99.90;;;;;;5011575;28;20037;-76
2023/09/05 09:09:57;;;;;;;0.20;0.20;;;25.90;99.90;;;;;;5011701;28;20485;-76
2023/09/05 09:12:31;;;;;;;0.00;0.00;;;26.10;99.90;;;;;;5011588;28;20022;-76
2023/09/05 09:15:09;;;;;;;0.00;0.00;;;26.60;99.90;;;;;;5011803;28;20025;-76
2023/09/05 09:17:57;;;;;;;0.00;0.00;;;26.80;98.90;;;;;;5011159;28;20034;-76
2023/09/05 09:20:23;;;;;;;0.10;0.10;;;27.10;98.70;;;;;;5011854;28;20029;-76
2023/09/05 09:22:52;;;;;;;0.00;0.00;;;26.80;98.70;;;;;;5011653;28;20423;-76
2023/09/05 09:25:21;;;;;;;0.00;0.00;;;27.20;98.30;;;;;;5010283;28;20054;-76
2023/09/05 09:27:53;;;;;;;0.00;0.00;;;27.40;97.60;;;;;;5011197;28;20049;-76
2023/09/05 09:30:24;;;;;;;0.00;0.00;;;27.40;98.10;;;;;;5011357;28;20034;-77
2023/09/05 09:32:51;;;;;;;0.00;0.00;;;27.50;98.00;;;;;;5011100;28;20025;-76
2023/09/05 09:35:17;;;;;;;0.17;0.17;;;27.60;97.90;;;;;;5011332;28;20061;-76
2023/09/05 09:37:46;;;;;;;0.00;0.00;;;27.70;95.60;;;;;;5011086;28;20060;-77
2023/09/05 09:40:16;;;;;;;0.00;0.00;;;27.80;96.90;;;;;;5011237;28;20098;-76
2023/09/05 09:42:49;;;;;;;0.00;0.00;;;27.80;95.70;;;;;;5011401;28;20034;-76
2023/09/05 09:45:18;;;;;;;0.20;0.20;;;27.90;96.20;;;;;;5026619;28;20026;-76
2023/09/05 09:47:51;;;;;;;0.00;0.00;;;28.10;94.60;;;;;;5010499;28;20038;-76
2023/09/05 09:50:19;;;;;;;0.03;0.03;;;27.90;94.30;;;;;;5010993;28;20424;-76
2023/09/05 09:52:46;;;;;;;0.00;0.00;;;28.00;93.80;;;;;;5011051;28;20033;-76
2023/09/05 09:55:15;;;;;;;0.30;0.30;;;28.00;94.50;;;;;;5009875;28;20458;-76
2023/09/05 09:57:55;;;;;;;0.00;0.00;;;28.10;94.40;;;;;;5011020;28;20527;-76
2023/09/05 10:00:22;;;;;;;0.00;0.00;;;28.30;93.40;;;;;;5010556;28;20065;-76
2023/09/05 10:02:49;;;;;;;0.00;0.00;;;28.10;94.00;;;;;;5010374;28;20492;-76
2023/09/05 10:05:17;;;;;;;0.00;0.00;;;28.20;93.80;;;;;;5010699;28;20018;-76
2023/09/05 10:07:43;;;;;;;0.20;0.20;;;28.30;93.30;;;;;;5010764;28;20128;-76
2023/09/05 10:10:15;;;;;;;0.25;0.03;;;28.20;92.40;;;;;;5010861;28;20557;-75
2023/09/05 10:12:54;;;;;;;0.55;0.55;;;28.30;93.30;;;;;;5010491;28;20044;-76
2023/09/05 10:15:21;;;;;;;0.30;0.25;;;28.50;93.40;;;;;;5010289;28;20121;-76
2023/09/05 10:17:48;;;;;;;0.03;0.03;;;28.50;92.60;;;;;;5009545;28;20037;-76
2023/09/05 10:20:18;;;;;;;0.00;0.00;;;28.50;93.40;;;;;;5010825;28;20467;-76
2023/09/05 10:22:46;;;;;;;0.32;0.32;;;28.60;93.60;;;;;;5009094;28;20025;-75
2023/09/05 10:25:15;;;;;;;0.73;0.38;;;28.60;92.60;;;;;;5039874;27;20120;-76
2023/09/05 10:27:42;;;;;;;0.10;0.10;;;28.70;92.50;;;;;;5040058;28;20044;-76
2023/09/05 10:30:10;;;;;;;0.08;0.08;;;28.60;92.50;;;;;;5010861;28;20035;-76
2023/09/05 10:32:37;;;;;;;0.00;0.00;;;28.80;92.40;;;;;;5032484;28;20018;-76
2023/09/05 10:35:03;;;;;;;3.13;0.63;;;28.90;93.30;;;;;;5005722;28;20054;-76
2023/09/05 10:37:35;;;;;;;0.13;0.13;;;29.00;92.50;;;;;;5009970;28;20087;-76
2023/09/05 10:40:10;;;;;;;0.57;0.45;;;29.10;92.70;;;;;;5048661;28;20453;-76
2023/09/05 10:42:43;;;;;;;0.40;0.35;;;29.00;91.70;;;;;;5005789;28;20029;-74
2023/09/05 10:45:24;;;;;;;0.93;0.30;;;29.30;92.00;;;;;;5024534;28;20580;-74
2023/09/05 10:47:53;;;;;;;3.10;0.15;;;29.20;91.80;;;;;;5020055;28;20084;-76
2023/09/05 10:50:20;;;;;;;0.35;0.20;;;29.20;91.40;;;;;;5058318;28;20042;-76
2023/09/05 10:52:50;;;;;;;0.10;0.10;;;29.50;92.60;;;;;;5018092;28;20062;-76
2023/09/05 10:55:32;;;;;;;0.22;0.22;;;29.50;90.80;;;;;;5010344;28;20522;-76
2023/09/05 10:57:59;;;;;;;0.00;0.00;;;29.70;91.30;;;;;;5024493;28;20501;-76
2023/09/05 11:00:29;;;;;;;0.00;0.00;;;29.80;91.90;;;;;;5038678;28;20035;-76
2023/09/05 11:03:15;;;;;;;0.43;0.43;;;30.00;91.70;;;;;;5033485;28;20028;-76
2023/09/05 11:05:41;;;;;;;0.45;0.45;;;30.30;91.00;;;;;;5012871;28;20506;-77
2023/09/05 11:08:21;;;;;;;0.20;0.20;;;30.20;91.20;;;;;;5070523;28;20031;-76
2023/09/05 11:10:50;;;;;;;0.10;0.10;;;30.00;90.80;;;;;;5026846;28;20083;-76
2023/09/05 11:13:15;;;;;;;0.60;0.45;;;29.70;91.30;;;;;;5007432;28;20044;-77
2023/09/05 11:15:45;;;;;;;1.38;1.27;;;29.80;91.80;;;;;;5030831;28;20486;-76
2023/09/05 11:18:14;;;;;;;0.00;0.00;;;29.90;90.90;;;;;;5017536;28;20069;-76
2023/09/05 11:20:47;;;;;;;0.00;0.00;;;30.20;91.90;;;;;;5053090;28;20235;-77
2023/09/05 11:23:27;;;;;;;0.00;0.00;;;30.70;91.00;;;;;;5022939;28;20048;-77
2023/09/05 11:25:55;;;;;;;0.00;0.00;;;31.10;91.20;;;;;;5017410;28;20079;-77
2023/09/05 11:28:25;;;;;;;0.20;0.20;;;30.90;91.40;;;;;;5016359;28;20033;-78
2023/09/05 11:30:56;;;;;;;2.20;1.17;;;30.70;90.40;;;;;;5009158;28;20038;-75
2023/09/05 11:33:23;;;;;;;0.08;0.08;;;30.70;90.90;;;;;;5009126;28;20040;-76
2023/09/05 11:35:49;;;;;;;0.40;0.40;;;30.40;90.90;;;;;;5007880;28;20026;-76
2023/09/05 11:38:17;;;;;;;0.10;0.10;;;30.50;90.70;;;;;;5008517;28;20067;-76
2023/09/05 11:41:09;;;;;;;0.10;0.10;;;30.40;91.20;;;;;;5008252;28;20131;-76
2023/09/05 11:43:43;;;;;;;0.17;0.15;;;30.40;90.80;;;;;;5007309;28;20389;-77
2023/09/05 11:46:09;;;;;;;0.00;0.00;;;30.60;92.50;;;;;;5008630;28;20046;-78
2023/09/05 11:48:35;;;;;;;2.92;0.75;;;31.20;92.10;;;;;;5008967;28;20034;-77
2023/09/05 11:51:01;;;;;;;1.00;0.60;;;31.50;90.50;;;;;;5009437;28;20026;-77
2023/09/05 11:53:29;;;;;;;0.40;0.17;;;31.30;90.40;;;;;;5008542;28;20051;-78
2023/09/05 11:55:57;;;;;;;0.00;0.00;;;31.70;91.10;;;;;;5008067;28;20030;-78
2023/09/05 11:58:23;;;;;;;0.25;0.25;;;32.10;90.60;;;;;;5009149;28;20030;-78
2023/09/05 12:00:50;;;;;;;0.60;0.60;;;32.50;90.40;;;;;;5006068;28;20587;-77
2023/09/05 12:03:17;;;;;;;0.47;0.40;;;32.80;90.30;;;;;;5003620;28;20096;-79
2023/09/05 12:05:48;;;;;;;1.27;0.75;;;32.70;89.60;;;;;;5011215;28;20529;-79
2023/09/05 12:08:18;;;;;;;0.25;0.20;;;32.40;88.90;;;;;;5011404;28;20042;-78
2023/09/05 12:10:51;;;;;;;2.50;0.20;;;32.40;90.10;;;;;;5012558;28;20378;-80
2023/09/05 12:13:18;;;;;;;0.20;0.13;;;32.80;88.50;;;;;;5012456;28;20390;-78
2023/09/05 12:15:46;;;;;;;0.10;0.10;;;33.10;90.00;;;;;;5012506;28;20018;-79
2023/09/05 12:18:19;;;;;;;1.08;0.85;;;33.50;88.40;;;;;;5012641;28;20037;-79
2023/09/05 12:20:55;;;;;;;0.98;0.28;;;33.40;87.20;;;;;;5011307;28;20083;-79
2023/09/05 12:23:25;;;;;;;0.52;0.52;;;33.20;86.70;;;;;;5012285;28;20026;-76
2023/09/05 12:25:52;;;;;;;1.73;0.60;;;33.40;88.10;;;;;;5012187;28;20045;-76
2023/09/05 12:28:20;;;;;;;0.17;0.17;;;33.60;86.90;;;;;;5012291;28;20532;-76
2023/09/05 12:30:50;;;;;;;0.30;0.30;;;33.40;86.10;;;;;;5012567;28;20029;-77
2023/09/05 12:33:17;;;;;;;0.00;0.00;;;33.30;86.20;;;;;;5012363;28;20030;-77
2023/09/05 12:35:44;;;;;;;0.55;0.40;;;33.10;87.60;;;;;;4994571;28;20030;-78
2023/09/05 12:38:10;;;;;;;1.25;0.75;;;33.40;87.20;;;;;;5012299;28;20014;-77
2023/09/05 12:40:37;;;;;;;0.55;0.32;;;33.20;87.10;;;;;;5010584;28;20413;-78
2023/09/05 12:43:04;;;;;;;0.00;0.00;;;33.60;86.40;;;;;;5012015;28;20018;-78
2023/09/05 12:45:31;;;;;;;0.43;0.43;;;34.50;85.20;;;;;;5012122;28;20477;-77
2023/09/05 12:47:57;;;;;;;0.00;0.00;;;35.10;83.60;;;;;;5012007;28;20034;-78
2023/09/05 12:50:29;;;;;;;0.00;0.00;;;35.20;83.70;;;;;;5010982;28;20026;-78
2023/09/05 12:52:56;;;;;;;0.32;0.32;;;35.20;84.30;;;;;;5011943;28;20427;-78